Time;durP1;ratioP1;P1;durP2;ratioP2;P2;SDS_P1;SDS_P2;PMS_P1;PMS_P2;Temp;Humidity;BMP_temperature;BMP_pressure;BME280_temperature;BME280_humidity;BME280_pressure;Samples;Min_cycle;Max_cycle;Signal;HPM_P1;HPM_P2
2021/12/11 00:02:31;;;;;;;30.50;17.55;;;3.00;88.70;;;;;;5031116;28;20025;-47
2021/12/11 00:05:00;;;;;;;36.17;18.98;;;3.10;88.60;;;;;;5031043;28;20021;-46
2021/12/11 00:07:31;;;;;;;37.10;19.27;;;3.10;88.50;;;;;;5031834;28;20053;-47
2021/12/11 00:10:10;;;;;;;36.63;20.25;;;3.00;88.50;;;;;;5032078;28;20029;-47
2021/12/11 00:12:45;;;;;;;32.17;18.70;;;3.10;88.30;;;;;;5027065;28;20044;-44
2021/12/11 00:15:18;;;;;;;35.28;19.00;;;3.10;88.40;;;;;;5031094;28;20521;-43
2021/12/11 00:17:45;;;;;;;41.88;20.67;;;3.00;88.20;;;;;;5031734;28;20105;-44
2021/12/11 00:20:25;;;;;;;32.88;19.67;;;2.90;88.30;;;;;;5032008;28;20351;-46
2021/12/11 00:22:51;;;;;;;;;;;2.90;88.50;;;;;;5029754;28;20020;-47
2021/12/11 00:25:18;;;;;;;31.10;18.00;;;2.90;88.30;;;;;;5031903;28;19912;-44
2021/12/11 00:27:49;;;;;;;40.08;17.77;;;2.90;88.40;;;;;;5030662;28;20156;-44
2021/12/11 00:30:26;;;;;;;34.22;18.65;;;2.80;88.30;;;;;;5030524;28;20585;-44
2021/12/11 00:33:21;;;;;;;35.40;18.17;;;2.70;88.40;;;;;;5030998;28;20098;-43
2021/12/11 00:35:51;;;;;;;29.15;17.98;;;2.70;88.20;;;;;;5030713;28;20132;-43
2021/12/11 00:38:24;;;;;;;31.15;17.20;;;2.60;88.10;;;;;;5030287;28;20103;-44
2021/12/11 00:40:53;;;;;;;42.72;19.30;;;2.50;87.90;;;;;;5031492;28;20037;-46
2021/12/11 00:43:28;;;;;;;33.60;17.75;;;2.40;88.00;;;;;;5030939;28;20025;-45
2021/12/11 00:45:57;;;;;;;33.05;17.27;;;2.30;88.00;;;;;;5031126;28;20095;-44
2021/12/11 00:48:26;;;;;;;32.75;17.73;;;2.30;88.10;;;;;;5030056;28;20029;-45
2021/12/11 00:51:13;;;;;;;33.95;18.80;;;2.20;88.10;;;;;;5030330;28;20109;-43
2021/12/11 00:53:58;;;;;;;37.63;21.60;;;2.10;88.10;;;;;;5030567;28;20561;-43
2021/12/11 00:56:46;;;;;;;37.33;21.25;;;2.00;88.10;;;;;;5020629;28;20461;-45
2021/12/11 00:59:18;;;;;;;36.72;21.10;;;1.90;88.20;;;;;;5030296;28;20033;-45
2021/12/11 01:02:03;;;;;;;30.10;18.05;;;1.90;88.20;;;;;;5045907;28;20025;-45
2021/12/11 01:04:41;;;;;;;33.00;18.13;;;1.80;88.20;;;;;;5009381;28;20366;-44
2021/12/11 01:07:19;;;;;;;31.85;17.63;;;1.80;88.20;;;;;;5010858;28;20030;-43
2021/12/11 01:09:53;;;;;;;40.20;17.88;;;1.70;88.20;;;;;;5028963;28;20028;-45
2021/12/11 01:12:35;;;;;;;33.33;18.25;;;1.70;88.30;;;;;;5029184;28;20045;-42
2021/12/11 01:15:33;;;;;;;36.58;18.45;;;1.60;88.20;;;;;;5030712;28;20029;-45
2021/12/11 01:20:56;;;;;;;28.55;16.92;;;1.60;88.40;;;;;;5030754;28;20117;-45
2021/12/11 01:26:10;;;;;;;37.38;19.67;;;1.40;88.00;;;;;;5030267;28;20048;-42
2021/12/11 01:28:38;;;;;;;33.67;18.60;;;1.30;88.70;;;;;;5030210;28;20029;-43
2021/12/11 01:31:09;;;;;;;37.00;18.98;;;1.30;88.70;;;;;;5057812;28;20088;-44
2021/12/11 01:33:37;;;;;;;33.38;17.60;;;1.20;88.60;;;;;;5069494;28;20031;-45
2021/12/11 01:36:06;;;;;;;35.95;20.20;;;1.20;88.90;;;;;;5052663;28;20037;-45
2021/12/11 01:38:34;;;;;;;30.40;17.17;;;1.20;88.90;;;;;;5069658;28;20440;-44
2021/12/11 01:41:05;;;;;;;34.03;18.10;;;1.20;88.70;;;;;;5052462;28;20472;-42
2021/12/11 01:43:34;;;;;;;28.20;16.88;;;1.20;88.70;;;;;;5069770;28;20038;-42
2021/12/11 01:46:04;;;;;;;36.45;18.63;;;1.10;88.50;;;;;;5069910;28;20043;-45
2021/12/11 01:48:38;;;;;;;28.05;16.50;;;1.00;88.30;;;;;;5068980;28;20040;-45
2021/12/11 01:51:17;;;;;;;33.22;18.75;;;0.90;88.40;;;;;;5069505;28;20043;-43
2021/12/11 01:53:52;;;;;;;26.23;16.23;;;0.90;88.70;;;;;;5068981;28;20039;-42
2021/12/11 01:56:24;;;;;;;30.38;16.92;;;0.90;88.50;;;;;;5054382;28;20028;-45
2021/12/11 01:59:21;;;;;;;34.17;16.77;;;0.80;88.30;;;;;;5068624;28;20016;-43
2021/12/11 02:02:16;;;;;;;29.33;16.20;;;0.70;88.20;;;;;;5069557;28;20102;-44
2021/12/11 02:04:46;;;;;;;30.58;16.98;;;0.70;88.00;;;;;;5064951;28;20082;-46
2021/12/11 02:07:20;;;;;;;28.27;16.65;;;0.60;87.90;;;;;;5049618;28;20025;-43
2021/12/11 02:09:56;;;;;;;28.67;16.50;;;0.60;88.00;;;;;;5066673;28;20079;-44
2021/12/11 02:12:39;;;;;;;25.35;14.93;;;0.60;87.90;;;;;;5069509;28;20311;-47
2021/12/11 02:15:19;;;;;;;29.40;15.95;;;0.60;88.00;;;;;;5069883;28;20038;-44
2021/12/11 02:17:59;;;;;;;27.15;15.85;;;0.60;88.10;;;;;;5068681;28;20035;-43
2021/12/11 02:20:35;;;;;;;29.35;18.02;;;0.60;88.30;;;;;;5069082;28;20599;-43
2021/12/11 02:23:05;;;;;;;28.98;16.95;;;0.70;88.30;;;;;;5066878;28;20080;-45
2021/12/11 02:25:42;;;;;;;28.73;16.63;;;0.70;88.50;;;;;;5069006;28;20032;-45
2021/12/11 02:28:18;;;;;;;28.98;16.73;;;0.80;88.70;;;;;;5068877;28;20036;-43
2021/12/11 02:31:10;;;;;;;30.48;17.73;;;0.90;88.80;;;;;;5068865;28;20473;-42
2021/12/11 02:33:58;;;;;;;34.95;18.27;;;0.90;88.80;;;;;;5068898;28;20369;-43
2021/12/11 02:36:33;;;;;;;33.75;18.85;;;1.00;89.00;;;;;;5068746;28;20389;-43
2021/12/11 02:39:24;;;;;;;31.30;17.77;;;1.00;89.10;;;;;;5069066;28;20039;-47
2021/12/11 02:41:57;;;;;;;36.90;19.17;;;1.00;89.30;;;;;;5069315;28;20350;-43
2021/12/11 02:44:31;;;;;;;41.10;19.13;;;1.20;89.40;;;;;;5068344;28;20024;-47
2021/12/11 02:47:36;;;;;;;34.88;17.42;;;1.20;89.50;;;;;;5068731;28;20071;-43
2021/12/11 02:50:12;;;;;;;34.33;18.90;;;1.30;89.50;;;;;;5069191;28;20139;-43
2021/12/11 02:52:54;;;;;;;31.02;18.30;;;1.30;89.50;;;;;;5068985;28;20044;-48
2021/12/11 02:55:50;;;;;;;31.13;17.75;;;1.40;89.50;;;;;;5068703;28;20047;-46
2021/12/11 02:58:29;;;;;;;33.88;18.65;;;1.40;89.60;;;;;;5067612;28;20035;-44
2021/12/11 03:00:58;;;;;;;36.03;18.80;;;1.40;89.60;;;;;;5069192;28;20071;-45
2021/12/11 03:03:30;;;;;;;32.67;19.13;;;1.40;89.50;;;;;;5068920;28;20447;-44
2021/12/11 03:06:05;;;;;;;42.33;19.83;;;1.40;89.60;;;;;;5069110;28;20393;-47
2021/12/11 03:08:32;;;;;;;33.20;18.83;;;1.40;89.50;;;;;;5068962;28;20081;-45
2021/12/11 03:11:03;;;;;;;35.40;18.50;;;1.40;89.50;;;;;;5069248;28;20048;-45
2021/12/11 03:13:34;;;;;;;34.38;19.45;;;1.40;89.40;;;;;;5069058;28;20033;-44
2021/12/11 03:16:02;;;;;;;27.80;16.80;;;1.30;89.20;;;;;;5069096;28;20028;-45
2021/12/11 03:18:29;;;;;;;34.35;17.25;;;1.30;89.30;;;;;;5068945;28;20080;-44
2021/12/11 03:20:55;;;;;;;30.30;17.90;;;1.20;89.10;;;;;;5070756;28;20536;-43
2021/12/11 03:23:22;;;;;;;32.25;17.83;;;1.20;89.10;;;;;;5084116;28;20028;-46
2021/12/11 03:25:50;;;;;;;37.08;18.60;;;1.20;89.10;;;;;;5078150;28;20036;-44
2021/12/11 03:28:20;;;;;;;31.80;17.90;;;1.10;89.10;;;;;;5070642;28;20115;-48
2021/12/11 03:30:56;;;;;;;30.67;18.10;;;1.00;89.10;;;;;;5072157;28;20063;-42
2021/12/11 03:33:33;;;;;;;33.47;19.30;;;1.00;89.10;;;;;;5072444;28;20094;-46
2021/12/11 03:36:02;;;;;;;37.47;18.83;;;0.90;89.10;;;;;;5072560;28;20031;-43
2021/12/11 03:38:31;;;;;;;38.30;20.47;;;0.90;89.20;;;;;;5064170;28;20029;-43
2021/12/11 03:40:58;;;;;;;36.00;18.55;;;0.90;89.40;;;;;;5055281;28;20349;-45
2021/12/11 03:43:31;;;;;;;33.08;18.40;;;1.00;89.60;;;;;;5072357;28;20103;-48
2021/12/11 03:46:06;;;;;;;38.15;20.00;;;1.00;89.60;;;;;;5071447;28;20046;-49
2021/12/11 03:48:38;;;;;;;36.70;19.50;;;1.10;89.60;;;;;;5072343;28;20064;-42
2021/12/11 03:51:11;;;;;;;33.63;20.25;;;1.10;89.70;;;;;;5072222;28;20519;-42
2021/12/11 03:53:41;;;;;;;36.38;19.48;;;1.20;89.80;;;;;;5071919;28;20046;-42
2021/12/11 03:56:13;;;;;;;36.67;19.88;;;1.20;89.80;;;;;;5073510;28;20035;-43
2021/12/11 03:58:48;;;;;;;30.17;18.50;;;1.20;89.80;;;;;;5072137;28;20066;-43
2021/12/11 04:01:25;;;;;;;36.67;19.95;;;1.20;89.80;;;;;;5072107;28;20016;-47
2021/12/11 04:03:55;;;;;;;34.30;18.17;;;1.20;89.90;;;;;;5071913;28;20834;-46
2021/12/11 04:06:23;;;;;;;31.92;16.73;;;1.30;89.80;;;;;;5072153;28;20024;-42
2021/12/11 04:08:52;;;;;;;33.50;18.08;;;1.30;89.70;;;;;;5063938;28;20024;-45
2021/12/11 04:11:24;;;;;;;34.50;19.83;;;1.30;89.70;;;;;;5072034;28;20115;-43
2021/12/11 04:13:55;;;;;;;32.70;19.38;;;1.30;89.70;;;;;;5071773;28;20049;-43
2021/12/11 04:16:21;;;;;;;31.77;18.70;;;1.20;89.70;;;;;;5054583;28;20028;-43
2021/12/11 04:18:48;;;;;;;33.58;18.60;;;1.30;89.80;;;;;;5063555;28;20025;-45
2021/12/11 04:21:16;;;;;;;33.17;19.85;;;1.30;89.90;;;;;;5074208;28;20034;-47
2021/12/11 04:23:42;;;;;;;35.95;18.73;;;1.30;89.80;;;;;;5075631;28;20028;-43
2021/12/11 04:26:09;;;;;;;33.20;19.17;;;1.30;89.80;;;;;;5071040;28;20426;-47
2021/12/11 04:28:41;;;;;;;31.13;18.85;;;1.40;89.80;;;;;;5071832;28;20047;-44
2021/12/11 04:31:15;;;;;;;35.55;19.33;;;1.30;89.60;;;;;;5068535;28;20087;-44
2021/12/11 04:33:45;;;;;;;34.97;18.40;;;1.30;89.60;;;;;;5071449;28;20033;-43
2021/12/11 04:36:16;;;;;;;;;;;1.30;89.60;;;;;;5071024;28;20045;-43
2021/12/11 04:38:45;;;;;;;35.70;18.88;;;1.40;89.60;;;;;;5071060;28;19985;-45
2021/12/11 04:41:17;;;;;;;35.42;19.33;;;1.40;89.50;;;;;;5071389;28;20124;-44
2021/12/11 04:43:47;;;;;;;30.08;18.73;;;1.40;89.60;;;;;;5071001;28;20040;-45
2021/12/11 04:46:14;;;;;;;37.15;20.55;;;1.40;89.70;;;;;;5071289;28;20041;-43
2021/12/11 04:53:57;;;;;;;33.95;19.85;;;1.40;89.50;;;;;;5070514;28;20357;-45
2021/12/11 04:59:29;;;;;;;36.05;20.75;;;1.40;89.40;;;;;;5070827;28;20373;-42
2021/12/11 05:04:58;;;;;;;35.70;20.58;;;1.40;89.40;;;;;;5067265;28;20047;-43
2021/12/11 05:10:21;;;;;;;34.70;19.70;;;1.30;89.30;;;;;;5067153;28;20043;-43
2021/12/11 05:12:55;;;;;;;33.35;19.52;;;1.30;89.20;;;;;;5070539;28;20452;-43
2021/12/11 05:15:41;;;;;;;32.30;18.10;;;1.20;89.20;;;;;;5070880;28;20029;-47
2021/12/11 05:18:15;;;;;;;30.80;19.00;;;1.20;89.20;;;;;;5070529;28;20021;-44
2021/12/11 05:20:46;;;;;;;31.58;18.65;;;1.20;89.00;;;;;;5070595;28;20028;-44
2021/12/11 05:23:16;;;;;;;32.38;18.15;;;1.10;89.00;;;;;;5064775;28;20089;-43
2021/12/11 05:25:44;;;;;;;34.08;18.23;;;1.10;89.10;;;;;;5047006;28;20033;-43
2021/12/11 05:28:14;;;;;;;30.13;17.48;;;1.10;89.10;;;;;;5069357;28;20020;-46
2021/12/11 05:30:49;;;;;;;;;;;1.10;89.20;;;;;;5070326;28;20048;-45
2021/12/11 05:33:17;;;;;;;44.25;27.73;;;1.10;89.30;;;;;;5069938;28;19912;-45
2021/12/11 05:35:44;;;;;;;44.15;27.13;;;1.10;89.30;;;;;;5070208;28;20075;-43
2021/12/11 05:38:15;;;;;;;39.97;24.17;;;1.20;89.10;;;;;;5069334;28;20024;-47
2021/12/11 05:40:48;;;;;;;41.63;25.58;;;1.20;89.20;;;;;;5069450;28;20489;-42
2021/12/11 05:43:15;;;;;;;34.45;21.13;;;1.20;89.20;;;;;;5069315;28;20176;-43
2021/12/11 05:45:43;;;;;;;38.40;20.77;;;1.20;89.30;;;;;;5069843;28;20121;-43
2021/12/11 05:48:11;;;;;;;38.20;22.00;;;1.20;89.30;;;;;;5069702;28;20055;-45
2021/12/11 05:50:46;;;;;;;34.67;20.77;;;1.30;89.30;;;;;;5058827;28;20039;-43
2021/12/11 05:53:15;;;;;;;32.67;19.83;;;1.20;89.20;;;;;;5059833;28;20036;-45
2021/12/11 05:55:42;;;;;;;31.23;21.42;;;1.20;89.30;;;;;;5069055;28;20078;-48
2021/12/11 05:58:12;;;;;;;31.05;20.17;;;1.30;89.30;;;;;;5069488;28;20103;-48
2021/12/11 06:00:44;;;;;;;34.00;20.83;;;1.20;89.30;;;;;;5066596;28;20021;-47
2021/12/11 06:03:12;;;;;;;32.42;20.60;;;1.20;89.30;;;;;;5069448;28;20047;-43
2021/12/11 06:05:43;;;;;;;31.02;19.35;;;1.30;89.30;;;;;;5067258;28;20047;-42
2021/12/11 06:08:11;;;;;;;29.92;19.70;;;1.30;89.40;;;;;;5069204;28;20115;-43
2021/12/11 06:10:40;;;;;;;32.42;20.25;;;1.30;89.30;;;;;;5066945;28;20021;-43
2021/12/11 06:13:08;;;;;;;36.13;21.00;;;1.30;89.40;;;;;;5069487;28;20375;-44
2021/12/11 06:15:37;;;;;;;30.30;19.42;;;1.30;89.30;;;;;;5069374;28;20024;-45
2021/12/11 06:18:04;;;;;;;33.03;20.52;;;1.40;89.40;;;;;;5069105;28;20029;-43
2021/12/11 06:20:33;;;;;;;39.22;20.75;;;1.40;89.30;;;;;;5069149;28;20497;-43
2021/12/11 06:22:59;;;;;;;34.63;20.50;;;1.40;89.30;;;;;;5072950;28;20024;-43
2021/12/11 06:25:31;;;;;;;34.85;20.92;;;1.40;89.40;;;;;;5060845;28;20048;-44
2021/12/11 06:27:58;;;;;;;34.35;20.20;;;1.50;89.60;;;;;;5059582;28;20020;-43
2021/12/11 06:30:24;;;;;;;33.13;20.25;;;1.40;89.50;;;;;;5068744;28;20047;-46
2021/12/11 06:32:51;;;;;;;34.20;21.67;;;1.40;89.30;;;;;;5043299;28;20024;-47
2021/12/11 06:35:35;;;;;;;30.30;19.40;;;1.50;89.30;;;;;;5069021;28;20409;-43
2021/12/11 06:38:03;;;;;;;33.72;19.90;;;1.50;89.40;;;;;;5059308;28;20039;-45
2021/12/11 06:40:33;;;;;;;31.92;21.45;;;1.50;89.40;;;;;;5069087;28;20020;-44
2021/12/11 06:43:01;;;;;;;34.28;21.17;;;1.50;89.30;;;;;;5068925;28;20108;-47
2021/12/11 06:45:28;;;;;;;27.10;18.45;;;1.50;89.30;;;;;;5068407;28;20457;-43
2021/12/11 06:47:56;;;;;;;32.05;19.98;;;1.50;89.30;;;;;;5069080;28;20040;-44
2021/12/11 06:50:24;;;;;;;34.10;22.20;;;1.50;89.40;;;;;;5068513;28;20416;-45
2021/12/11 06:52:52;;;;;;;37.08;24.25;;;1.50;89.40;;;;;;5068778;28;21261;-43
2021/12/11 06:55:20;;;;;;;46.00;26.73;;;1.60;89.50;;;;;;5066826;28;20119;-43
2021/12/11 06:57:48;;;;;;;45.78;28.25;;;1.60;89.50;;;;;;5071299;28;20024;-44
2021/12/11 07:00:19;;;;;;;40.92;24.85;;;1.70;89.60;;;;;;5058733;28;20024;-44
2021/12/11 07:02:46;;;;;;;38.95;23.50;;;1.60;89.50;;;;;;5058538;28;20025;-42
2021/12/11 07:05:14;;;;;;;34.15;20.25;;;1.70;89.40;;;;;;5072532;28;20040;-42
2021/12/11 07:07:42;;;;;;;35.42;21.50;;;1.70;89.40;;;;;;5072022;28;20471;-42
2021/12/11 07:10:12;;;;;;;33.95;20.77;;;1.80;89.50;;;;;;5072523;28;20017;-42
2021/12/11 07:12:40;;;;;;;35.42;21.70;;;1.80;89.40;;;;;;5072297;28;20021;-45
2021/12/11 07:15:10;;;;;;;37.90;22.02;;;1.80;89.40;;;;;;5052162;28;20077;-44
2021/12/11 07:17:38;;;;;;;29.23;21.10;;;1.80;89.40;;;;;;5067444;28;20055;-42
2021/12/11 07:20:08;;;;;;;32.17;20.38;;;1.80;89.40;;;;;;5072964;28;20091;-42
2021/12/11 07:22:34;;;;;;;30.80;20.85;;;1.80;89.50;;;;;;5079723;28;20170;-43
2021/12/11 07:25:08;;;;;;;36.63;21.20;;;1.80;89.40;;;;;;5072454;28;20021;-43
2021/12/11 07:27:35;;;;;;;31.75;19.88;;;1.80;89.30;;;;;;5071977;28;20028;-44
2021/12/11 07:30:01;;;;;;;37.45;21.85;;;1.80;89.20;;;;;;5071431;28;20048;-45
2021/12/11 07:32:28;;;;;;;43.95;26.48;;;1.80;89.20;;;;;;5071456;28;20044;-45
2021/12/11 07:34:55;;;;;;;41.53;25.02;;;1.80;89.10;;;;;;5070771;28;20028;-43
2021/12/11 07:37:22;;;;;;;37.88;23.83;;;1.70;89.10;;;;;;5037263;28;20135;-42
2021/12/11 07:39:48;;;;;;;36.00;22.98;;;1.70;89.00;;;;;;5068901;28;20116;-45
2021/12/11 07:42:16;;;;;;;40.10;25.02;;;1.70;89.00;;;;;;5072056;28;20064;-44
2021/12/11 07:44:44;;;;;;;40.47;25.92;;;1.60;89.10;;;;;;5072092;28;20086;-45
2021/12/11 07:47:11;;;;;;;32.10;21.67;;;1.70;89.20;;;;;;5059346;28;20032;-42
2021/12/11 07:49:38;;;;;;;37.65;23.95;;;1.70;89.10;;;;;;5071554;28;20032;-43
2021/12/11 07:52:05;;;;;;;39.08;23.88;;;1.70;89.10;;;;;;5055340;28;20042;-50
2021/12/11 07:54:32;;;;;;;36.60;22.55;;;1.70;89.10;;;;;;5070833;28;20034;-45
2021/12/11 07:56:59;;;;;;;34.97;21.80;;;1.70;89.10;;;;;;5070781;28;20044;-45
2021/12/11 07:59:26;;;;;;;37.50;22.23;;;1.70;89.20;;;;;;5086360;28;20021;-44
2021/12/11 08:01:53;;;;;;;34.13;21.55;;;1.80;89.20;;;;;;5071242;28;20037;-42
2021/12/11 08:04:20;;;;;;;35.20;21.90;;;1.70;89.20;;;;;;5054555;28;20024;-43
2021/12/11 08:06:48;;;;;;;33.78;21.52;;;1.80;89.30;;;;;;5071994;28;20500;-43
2021/12/11 08:09:18;;;;;;;34.97;21.98;;;1.90;89.30;;;;;;5054272;28;20504;-43
2021/12/11 08:11:46;;;;;;;35.13;20.13;;;1.90;89.40;;;;;;5071874;28;20110;-41
2021/12/11 08:14:15;;;;;;;31.08;20.80;;;1.90;89.40;;;;;;5070376;28;20066;-43
2021/12/11 08:16:46;;;;;;;31.52;19.30;;;1.90;89.30;;;;;;5071493;28;20673;-43
2021/12/11 08:19:21;;;;;;;32.17;21.30;;;1.90;89.20;;;;;;5055870;28;20036;-42
2021/12/11 08:21:53;;;;;;;30.55;20.42;;;1.90;89.10;;;;;;5051995;28;20101;-43
2021/12/11 08:24:20;;;;;;;34.95;21.73;;;1.90;89.10;;;;;;5071314;28;20054;-43
2021/12/11 08:26:53;;;;;;;32.53;19.75;;;1.90;89.00;;;;;;5069462;28;20131;-43
2021/12/11 08:29:20;;;;;;;32.92;20.77;;;2.00;89.00;;;;;;5071402;28;20395;-42
2021/12/11 08:31:51;;;;;;;32.25;20.05;;;2.00;89.00;;;;;;5070970;28;20052;-43
2021/12/11 08:34:20;;;;;;;28.95;19.45;;;2.00;89.20;;;;;;5059999;28;20088;-46
2021/12/11 08:36:49;;;;;;;32.40;20.55;;;2.20;89.20;;;;;;5053622;28;20412;-42
2021/12/11 08:39:18;;;;;;;32.58;20.80;;;2.20;89.10;;;;;;5062679;28;20052;-44
2021/12/11 08:41:47;;;;;;;28.90;20.85;;;2.30;89.10;;;;;;5051494;28;20047;-46
2021/12/11 08:44:17;;;;;;;31.35;21.02;;;2.40;88.90;;;;;;5054052;28;20028;-46
2021/12/11 08:46:49;;;;;;;28.52;20.92;;;2.40;89.00;;;;;;5060723;28;20116;-46
2021/12/11 08:49:24;;;;;;;27.35;18.83;;;2.50;88.90;;;;;;5070851;28;20029;-45
2021/12/11 08:51:57;;;;;;;29.60;18.52;;;2.60;88.80;;;;;;5070365;28;20055;-43
2021/12/11 08:54:27;;;;;;;34.13;21.27;;;2.60;88.20;;;;;;5052913;28;20350;-46
2021/12/11 08:56:55;;;;;;;28.08;17.95;;;2.60;88.30;;;;;;5069972;28;20051;-42
2021/12/11 08:59:25;;;;;;;27.80;18.63;;;2.70;88.20;;;;;;5070690;28;20052;-44
2021/12/11 09:02:00;;;;;;;31.92;18.52;;;2.70;88.00;;;;;;5070345;28;20472;-43
2021/12/11 09:04:48;;;;;;;27.23;18.85;;;2.80;88.20;;;;;;5070737;28;20036;-45
2021/12/11 09:07:38;;;;;;;27.33;17.35;;;2.70;87.90;;;;;;5070974;28;20021;-42
2021/12/11 09:10:17;;;;;;;28.20;18.42;;;2.80;87.90;;;;;;5063894;28;20055;-43
2021/12/11 09:12:59;;;;;;;26.13;18.83;;;2.80;87.90;;;;;;5070754;28;20041;-47
2021/12/11 09:15:34;;;;;;;28.45;18.23;;;2.80;87.90;;;;;;5070458;28;20041;-44
2021/12/11 09:18:29;;;;;;;29.80;18.95;;;2.80;87.90;;;;;;5070459;28;20027;-42
2021/12/11 09:21:03;;;;;;;32.35;17.45;;;2.90;87.80;;;;;;5072466;28;20143;-47
2021/12/11 09:23:44;;;;;;;30.33;19.27;;;2.90;87.60;;;;;;5070358;28;20024;-44
2021/12/11 09:26:42;;;;;;;26.92;18.00;;;2.90;87.60;;;;;;5057556;28;20044;-45
2021/12/11 09:29:23;;;;;;;25.25;16.92;;;2.90;87.40;;;;;;5070550;28;20036;-43
2021/12/11 09:32:07;;;;;;;25.15;17.77;;;2.90;87.60;;;;;;5050147;28;20044;-42
2021/12/11 09:34:49;;;;;;;25.50;17.63;;;3.00;87.50;;;;;;5070025;28;20024;-45
2021/12/11 09:37:16;;;;;;;27.63;18.35;;;3.00;87.40;;;;;;5070363;28;20082;-43
2021/12/11 09:39:57;;;;;;;30.65;18.35;;;3.00;87.40;;;;;;5069729;28;20066;-42
2021/12/11 09:42:25;;;;;;;26.63;17.67;;;3.00;87.30;;;;;;5069959;28;20028;-43
2021/12/11 09:44:59;;;;;;;26.27;18.67;;;3.10;87.40;;;;;;5068854;28;20036;-45
2021/12/11 09:47:35;;;;;;;25.65;17.77;;;3.10;87.40;;;;;;5069920;28;20092;-45
2021/12/11 09:50:09;;;;;;;29.40;18.30;;;3.10;87.40;;;;;;5070114;28;20028;-45
2021/12/11 09:52:38;;;;;;;26.67;17.10;;;3.20;87.50;;;;;;5053416;28;20499;-42
2021/12/11 09:55:17;;;;;;;30.52;18.95;;;3.20;87.30;;;;;;5080134;28;20039;-47
2021/12/11 09:57:48;;;;;;;25.08;17.45;;;3.30;87.30;;;;;;5043685;28;20055;-44
2021/12/11 10:00:21;;;;;;;27.25;16.95;;;3.30;87.40;;;;;;5069107;28;20119;-44
2021/12/11 10:02:49;;;;;;;24.25;16.15;;;3.40;87.40;;;;;;5076783;28;20052;-44
2021/12/11 10:05:35;;;;;;;26.77;16.48;;;3.40;87.20;;;;;;5069680;28;20435;-45
2021/12/11 10:08:28;;;;;;;27.15;16.23;;;3.50;87.10;;;;;;5068967;28;20068;-46
2021/12/11 10:11:22;;;;;;;25.80;16.48;;;3.50;86.70;;;;;;5078412;28;20493;-44
2021/12/11 10:14:08;;;;;;;25.15;15.13;;;3.60;86.70;;;;;;5078731;28;20032;-47
2021/12/11 10:16:43;;;;;;;28.80;15.80;;;3.70;86.40;;;;;;5068978;28;20079;-43
2021/12/11 10:19:13;;;;;;;22.55;13.85;;;3.70;86.40;;;;;;5068545;28;20115;-46
2021/12/11 10:21:50;;;;;;;26.83;16.75;;;3.80;86.20;;;;;;5060526;28;20034;-46
2021/12/11 10:24:22;;;;;;;28.15;16.27;;;3.80;85.80;;;;;;5074479;28;20033;-44
2021/12/11 10:26:52;;;;;;;22.17;15.63;;;3.90;85.80;;;;;;5068386;28;20056;-45
2021/12/11 10:29:19;;;;;;;25.27;15.40;;;3.90;85.50;;;;;;5068208;28;20027;-45
2021/12/11 10:31:52;;;;;;;25.73;14.10;;;3.80;85.40;;;;;;5068549;28;20110;-49
2021/12/11 10:34:24;;;;;;;23.27;15.57;;;3.90;85.40;;;;;;5068329;28;20082;-45
2021/12/11 10:37:37;;;;;;;22.88;14.63;;;3.80;85.40;;;;;;5066225;28;20379;-47
2021/12/11 10:40:14;;;;;;;26.13;14.85;;;3.90;85.30;;;;;;5060782;28;20170;-45
2021/12/11 10:42:43;;;;;;;28.25;16.52;;;3.90;85.60;;;;;;5065899;28;20358;-48
2021/12/11 10:45:14;;;;;;;;;;;4.00;85.60;;;;;;5066146;28;20032;-45
2021/12/11 10:47:51;;;;;;;20.52;14.52;;;4.20;85.60;;;;;;5067691;28;20245;-43
2021/12/11 10:50:33;;;;;;;21.75;14.90;;;4.30;84.90;;;;;;5067662;28;20028;-44
2021/12/11 10:53:03;;;;;;;22.33;15.38;;;4.30;84.80;;;;;;5060017;28;20039;-45
2021/12/11 10:55:32;;;;;;;22.40;14.20;;;4.40;84.60;;;;;;5067787;28;20044;-44
2021/12/11 10:58:03;;;;;;;22.15;13.95;;;4.40;84.30;;;;;;5067504;28;20154;-44
2021/12/11 11:00:43;;;;;;;23.23;14.90;;;4.40;84.60;;;;;;5066427;28;20029;-44
2021/12/11 11:03:13;;;;;;;24.73;13.70;;;4.40;84.30;;;;;;5069007;28;20737;-46
2021/12/11 11:05:40;;;;;;;24.05;14.55;;;4.40;84.20;;;;;;5068614;28;20032;-43
2021/12/11 11:08:11;;;;;;;24.73;13.32;;;4.40;84.30;;;;;;5068230;28;20057;-44
2021/12/11 11:10:48;;;;;;;27.60;15.00;;;4.40;84.30;;;;;;5066648;28;20365;-45
2021/12/11 11:13:17;;;;;;;24.08;13.57;;;4.50;84.10;;;;;;5067837;28;20525;-46
2021/12/11 11:15:45;;;;;;;23.88;13.05;;;4.50;84.30;;;;;;5067641;28;20048;-45
2021/12/11 11:18:15;;;;;;;20.45;13.40;;;4.50;84.00;;;;;;5068432;28;20037;-45
2021/12/11 11:20:47;;;;;;;28.27;13.52;;;4.50;84.00;;;;;;5068596;28;20446;-44
2021/12/11 11:23:17;;;;;;;24.15;13.73;;;4.50;83.90;;;;;;5052643;28;20037;-46
2021/12/11 11:25:48;;;;;;;20.42;12.65;;;4.60;83.80;;;;;;5067322;28;20153;-45
2021/12/11 11:28:26;;;;;;;24.40;15.25;;;4.60;83.80;;;;;;5066802;28;20461;-49
2021/12/11 11:31:03;;;;;;;21.00;13.02;;;4.60;83.60;;;;;;5066196;28;20426;-42
2021/12/11 11:33:34;;;;;;;22.27;13.50;;;4.60;83.80;;;;;;5067122;28;20056;-48
2021/12/11 11:36:03;;;;;;;19.67;13.70;;;4.60;83.30;;;;;;5066960;28;20051;-45
2021/12/11 11:38:37;;;;;;;23.42;14.48;;;4.70;83.10;;;;;;5062212;28;20128;-47
2021/12/11 11:41:13;;;;;;;22.27;13.82;;;4.80;83.20;;;;;;5052275;28;20039;-48
2021/12/11 11:43:45;;;;;;;21.33;12.75;;;4.90;83.30;;;;;;5065659;28;20101;-49
2021/12/11 11:46:12;;;;;;;16.98;12.07;;;5.00;82.80;;;;;;5064481;28;20032;-43
2021/12/11 11:48:44;;;;;;;21.73;12.82;;;5.10;82.50;;;;;;5049809;28;20037;-43
2021/12/11 11:51:25;;;;;;;19.33;13.00;;;5.10;82.10;;;;;;5051429;28;20130;-45
2021/12/11 11:53:53;;;;;;;21.42;13.32;;;5.10;82.50;;;;;;5069727;28;20024;-45
2021/12/11 11:56:24;;;;;;;18.13;14.18;;;5.10;82.50;;;;;;5070535;28;20047;-43
2021/12/11 11:58:51;;;;;;;21.48;13.52;;;5.10;82.30;;;;;;5070520;28;20036;-43
2021/12/11 12:01:38;;;;;;;22.50;13.70;;;5.00;82.40;;;;;;5067650;28;20054;-45
2021/12/11 12:04:11;;;;;;;17.77;13.02;;;4.90;82.10;;;;;;5053227;28;20077;-44
2021/12/11 12:06:39;;;;;;;22.17;14.57;;;4.90;82.20;;;;;;5059914;28;20090;-45
2021/12/11 12:09:10;;;;;;;20.42;12.35;;;4.90;82.20;;;;;;5058465;28;20029;-45
2021/12/11 12:11:39;;;;;;;20.63;13.27;;;4.80;82.30;;;;;;5068063;28;20474;-44
2021/12/11 12:14:12;;;;;;;21.00;13.70;;;4.80;82.50;;;;;;5052319;28;20064;-44
2021/12/11 12:16:41;;;;;;;18.48;13.38;;;4.80;82.30;;;;;;5069877;28;20040;-50
2021/12/11 12:19:08;;;;;;;22.35;13.63;;;4.70;82.50;;;;;;5070309;28;20052;-46
2021/12/11 12:21:40;;;;;;;23.10;12.27;;;4.80;82.70;;;;;;5057280;28;20074;-46
2021/12/11 12:24:08;;;;;;;24.08;13.40;;;4.80;82.70;;;;;;5068181;28;20063;-46
2021/12/11 12:26:36;;;;;;;22.55;12.65;;;4.70;82.60;;;;;;5058375;28;20032;-44
2021/12/11 12:29:07;;;;;;;23.58;14.90;;;4.80;82.80;;;;;;5051948;28;20028;-46
2021/12/11 12:31:40;;;;;;;22.38;13.75;;;4.90;82.60;;;;;;5070697;28;20139;-44
2021/12/11 12:34:10;;;;;;;22.85;13.85;;;4.90;82.80;;;;;;5069915;28;20024;-46
2021/12/11 12:36:39;;;;;;;25.67;13.90;;;4.90;82.80;;;;;;5070473;28;20307;-45
2021/12/11 12:39:07;;;;;;;23.25;13.27;;;4.90;82.70;;;;;;5053911;28;20032;-47
2021/12/11 12:41:45;;;;;;;24.27;14.65;;;4.80;82.70;;;;;;5070068;28;20029;-45
2021/12/11 12:44:19;;;;;;;25.55;13.85;;;4.80;82.60;;;;;;5070711;28;20037;-47
2021/12/11 12:46:56;;;;;;;21.75;14.50;;;4.70;82.50;;;;;;5053567;28;20095;-44
2021/12/11 12:49:27;;;;;;;19.40;12.43;;;4.70;82.60;;;;;;5070236;28;20033;-48
2021/12/11 12:51:58;;;;;;;22.23;13.68;;;4.70;82.80;;;;;;5070921;28;20037;-46
2021/12/11 12:54:25;;;;;;;19.65;12.90;;;4.70;82.90;;;;;;5061324;28;20051;-45
2021/12/11 12:57:20;;;;;;;25.80;14.23;;;4.70;82.90;;;;;;5070169;28;20037;-48
2021/12/11 12:59:56;;;;;;;23.55;13.55;;;4.70;82.70;;;;;;5051043;28;20027;-48
2021/12/11 13:02:25;;;;;;;23.10;13.90;;;4.70;82.70;;;;;;5062817;28;20082;-46
2021/12/11 13:05:19;;;;;;;25.55;13.55;;;4.70;82.90;;;;;;5069925;28;20089;-46
2021/12/11 13:07:48;;;;;;;19.75;12.70;;;4.70;83.00;;;;;;5058538;28;20036;-45
2021/12/11 13:10:20;;;;;;;19.33;12.82;;;4.60;82.80;;;;;;5069715;28;20325;-44
2021/12/11 13:12:47;;;;;;;22.05;13.02;;;4.60;82.90;;;;;;5069257;28;20025;-47
2021/12/11 13:15:21;;;;;;;24.25;15.10;;;4.50;83.00;;;;;;5069751;28;20040;-45
2021/12/11 13:17:50;;;;;;;20.30;12.30;;;4.50;83.10;;;;;;5068697;28;20067;-43
2021/12/11 13:20:22;;;;;;;25.95;14.95;;;4.50;83.30;;;;;;5069223;28;20051;-44
2021/12/11 13:22:51;;;;;;;21.25;13.18;;;4.50;83.50;;;;;;5068886;28;20372;-48
2021/12/11 13:25:25;;;;;;;22.75;13.50;;;4.40;83.60;;;;;;5069051;28;20024;-46
2021/12/11 13:27:55;;;;;;;24.27;13.02;;;4.40;83.80;;;;;;5069360;28;20083;-48